Time;durP1;ratioP1;P1;durP2;ratioP2;P2;SDS_P1;SDS_P2;PMS_P1;PMS_P2;Temp;Humidity;BMP_temperature;BMP_pressure;BME280_temperature;BME280_humidity;BME280_pressure;Samples;Min_cycle;Max_cycle;Signal;HPM_P1;HPM_P2
2021/04/04 00:00:58;;;;;;;12.52;4.60;;;;;;;2.06;63.17;97206.72;5023830;28;20095;-64
2021/04/04 00:03:24;;;;;;;10.85;4.50;;;;;;;2.08;63.13;97214.53;5020184;28;20387;-65
2021/04/04 00:05:49;;;;;;;8.32;4.20;;;;;;;2.08;63.48;97198.31;5017766;28;20399;-66
2021/04/04 00:08:15;;;;;;;9.98;4.75;;;;;;;2.23;62.81;97210.72;5019841;28;20492;-64
2021/04/04 00:10:40;;;;;;;11.27;4.57;;;;;;;2.19;63.07;97198.94;5024420;28;20045;-66
2021/04/04 00:13:06;;;;;;;9.80;4.20;;;;;;;2.21;62.78;97204.81;5031326;28;20045;-65
2021/04/04 00:15:31;;;;;;;10.60;4.53;;;;;;;2.20;62.56;97203.25;5026023;28;20889;-65
2021/04/04 00:17:57;;;;;;;9.60;4.63;;;;;;;2.18;63.15;97194.59;5023251;28;20176;-66
2021/04/04 00:20:23;;;;;;;16.05;4.95;;;;;;;2.16;62.56;97186.00;5006724;28;20247;-67
2021/04/04 00:22:48;;;;;;;12.38;4.70;;;;;;;2.18;62.46;97194.59;5022255;28;20041;-65
2021/04/04 00:25:15;;;;;;;14.60;4.35;;;;;;;2.12;62.85;97193.91;5017718;28;20059;-65
2021/04/04 00:27:42;;;;;;;13.00;4.63;;;;;;;2.20;62.61;97184.31;5022991;28;20041;-65
2021/04/04 00:30:10;;;;;;;10.10;4.47;;;;;;;2.24;62.50;97193.44;5016651;28;20041;-64
2021/04/04 00:32:35;;;;;;;10.65;4.90;;;;;;;2.26;62.47;97196.63;5022461;28;20133;-63
2021/04/04 00:35:06;;;;;;;15.70;5.78;;;;;;;2.30;62.28;97186.81;5034044;28;20042;-63
2021/04/04 00:37:31;;;;;;;12.25;4.38;;;;;;;2.24;62.39;97183.41;5022080;28;20561;-63
2021/04/04 00:39:57;;;;;;;11.07;4.35;;;;;;;2.13;63.21;97173.13;5022332;28;20041;-66
2021/04/04 00:42:22;;;;;;;13.23;5.05;;;;;;;2.24;62.60;97175.28;5014523;28;20127;-66
2021/04/04 00:44:48;;;;;;;14.10;5.50;;;;;;;2.25;62.73;97181.50;5004828;28;20144;-67
2021/04/04 00:47:13;;;;;;;9.57;4.22;;;;;;;2.23;62.63;97178.28;5017827;28;20390;-64
2021/04/04 00:49:39;;;;;;;8.60;4.22;;;;;;;2.14;62.68;97172.00;5021563;28;20064;-65
2021/04/04 00:52:05;;;;;;;10.80;4.82;;;;;;;2.18;62.98;97176.50;5017234;28;20038;-68
2021/04/04 00:54:30;;;;;;;10.35;4.07;;;;;;;2.14;62.92;97180.88;5022383;28;20132;-65
2021/04/04 00:56:56;;;;;;;12.55;4.43;;;;;;;2.21;61.97;97180.50;5024114;28;20041;-65
2021/04/04 00:59:22;;;;;;;8.48;4.43;;;;;;;2.21;62.42;97181.28;4999719;28;20077;-67
2021/04/04 01:01:48;;;;;;;8.02;3.92;;;;;;;2.19;62.81;97182.72;5022711;28;20242;-64
2021/04/04 01:04:13;;;;;;;8.75;4.20;;;;;;;2.18;62.34;97183.78;5014886;28;20041;-66
2021/04/04 01:06:39;;;;;;;12.60;5.07;;;;;;;2.15;61.94;97171.69;5022573;28;20041;-65
2021/04/04 01:09:05;;;;;;;7.57;4.13;;;;;;;2.18;61.97;97171.09;5022361;28;20041;-66
2021/04/04 01:12:11;;;;;;;7.93;3.70;;;;;;;2.24;62.17;97169.91;5024759;28;20144;-66
2021/04/04 01:14:46;;;;;;;6.78;4.20;;;;;;;2.23;61.93;97173.72;5014456;28;20042;-65
2021/04/04 01:17:15;;;;;;;7.93;3.90;;;;;;;2.25;61.35;97170.69;5015568;28;20041;-65
2021/04/04 01:19:52;;;;;;;9.95;5.15;;;;;;;2.23;61.66;97165.59;5020786;28;20486;-66
2021/04/04 01:22:50;;;;;;;7.82;4.32;;;;;;;2.17;61.77;97166.78;4999727;28;20799;-64
2021/04/04 01:26:00;;;;;;;8.27;3.97;;;;;;;2.09;62.03;97171.00;5034950;28;20045;-64
2021/04/04 01:28:29;;;;;;;11.35;4.85;;;;;;;2.00;62.99;97162.00;5012694;28;20144;-63
2021/04/04 01:30:56;;;;;;;13.70;4.90;;;;;;;1.92;63.06;97179.69;5021745;28;20395;-64
2021/04/04 01:33:24;;;;;;;7.95;3.88;;;;;;;1.90;63.12;97178.38;4992445;28;20061;-64
2021/04/04 01:35:55;;;;;;;11.73;4.60;;;;;;;1.85;63.37;97176.56;5020614;28;20038;-63
2021/04/04 01:38:25;;;;;;;7.95;4.82;;;;;;;1.87;63.47;97170.88;5016864;28;20033;-65
2021/04/04 01:40:56;;;;;;;9.60;4.10;;;;;;;1.86;63.53;97174.69;5014903;28;20060;-63
2021/04/04 01:43:24;;;;;;;5.93;3.78;;;;;;;1.82;63.14;97173.66;5016889;28;20370;-64
2021/04/04 01:45:52;;;;;;;8.75;4.18;;;;;;;1.84;63.41;97174.97;5021534;28;20168;-63
2021/04/04 01:48:19;;;;;;;11.70;4.72;;;;;;;1.96;63.25;97168.28;5016668;28;20038;-65
2021/04/04 01:50:45;;;;;;;9.88;4.30;;;;;;;1.96;62.87;97170.97;5020390;28;20574;-65
2021/04/04 01:53:14;;;;;;;10.13;4.20;;;;;;;1.91;63.23;97169.19;5015910;28;20068;-65
2021/04/04 01:55:40;;;;;;;15.27;3.63;;;;;;;1.90;63.06;97171.06;5021886;28;20449;-65
2021/04/04 01:58:09;;;;;;;9.85;4.47;;;;;;;1.95;62.75;97166.69;5017296;28;20834;-65
2021/04/04 02:00:37;;;;;;;8.57;3.88;;;;;;;1.94;63.19;97165.09;5022076;28;20553;-64
2021/04/04 02:03:04;;;;;;;8.90;3.65;;;;;;;1.91;63.28;97161.88;5019991;28;20048;-65
2021/04/04 02:05:30;;;;;;;8.75;5.03;;;;;;;2.08;62.24;97160.50;5003346;28;20053;-65
2021/04/04 02:07:58;;;;;;;12.18;4.97;;;;;;;2.05;62.86;97161.06;5014126;28;20046;-64
2021/04/04 02:10:26;;;;;;;8.02;3.80;;;;;;;1.95;63.50;97156.69;5017953;28;20121;-66
2021/04/04 02:12:54;;;;;;;14.15;4.30;;;;;;;1.91;63.69;97159.19;5033314;28;20056;-66
2021/04/04 02:15:21;;;;;;;8.30;3.75;;;;;;;1.84;63.82;97158.78;5019105;28;20041;-66
2021/04/04 02:17:48;;;;;;;14.48;4.28;;;;;;;1.81;63.89;97164.75;5023282;28;20136;-64
2021/04/04 02:20:16;;;;;;;8.90;4.47;;;;;;;1.82;63.80;97160.97;4994048;28;20034;-63
2021/04/04 02:22:43;;;;;;;7.72;4.72;;;;;;;1.79;63.58;97161.56;5031586;28;20045;-63
2021/04/04 02:25:11;;;;;;;10.52;4.47;;;;;;;1.78;63.64;97154.53;5017972;28;20042;-63
2021/04/04 02:27:40;;;;;;;9.88;4.07;;;;;;;1.80;63.64;97156.94;5005982;28;20491;-64
2021/04/04 02:30:07;;;;;;;10.52;4.80;;;;;;;1.74;64.07;97150.84;5002082;28;20047;-63
2021/04/04 02:32:37;;;;;;;10.00;4.50;;;;;;;1.67;64.55;97161.25;5020436;28;20069;-66
2021/04/04 02:35:04;;;;;;;12.77;4.63;;;;;;;1.76;63.87;97153.25;5021039;28;20041;-63
2021/04/04 02:37:30;;;;;;;14.13;4.55;;;;;;;1.66;64.85;97157.75;5018866;28;20113;-64
2021/04/04 02:40:09;;;;;;;11.88;4.28;;;;;;;1.69;64.95;97148.22;5003987;28;20042;-63
2021/04/04 02:42:36;;;;;;;10.32;5.13;;;;;;;1.67;64.59;97153.13;5013475;28;20042;-64
2021/04/04 02:45:05;;;;;;;9.70;4.35;;;;;;;1.68;64.61;97144.75;5005780;28;20049;-62
2021/04/04 02:47:43;;;;;;;14.17;4.77;;;;;;;1.68;64.71;97157.44;5004425;28;20034;-64
2021/04/04 02:50:11;;;;;;;10.88;4.10;;;;;;;1.68;64.86;97141.25;4981902;28;20293;-64
2021/04/04 02:52:39;;;;;;;10.63;4.75;;;;;;;1.67;64.97;97143.13;5004415;28;20533;-63
2021/04/04 02:55:08;;;;;;;9.65;4.40;;;;;;;1.72;64.75;97140.34;5012056;28;20437;-64
2021/04/04 02:57:35;;;;;;;11.63;4.20;;;;;;;1.71;64.84;97137.94;5024415;28;20124;-63
2021/04/04 03:00:05;;;;;;;7.70;4.28;;;;;;;1.71;64.41;97140.63;5023046;28;20048;-64
2021/04/04 03:02:31;;;;;;;10.98;4.20;;;;;;;1.74;64.12;97140.03;5023798;28;20046;-63
2021/04/04 03:04:59;;;;;;;16.30;4.93;;;;;;;1.87;64.07;97139.28;5021429;28;20400;-63
2021/04/04 03:07:27;;;;;;;9.07;4.40;;;;;;;1.86;64.12;97134.97;5001220;28;20041;-64
2021/04/04 03:09:54;;;;;;;10.07;4.10;;;;;;;1.94;63.24;97138.06;5026697;28;20437;-63
2021/04/04 03:12:22;;;;;;;8.95;3.78;;;;;;;1.95;63.88;97129.66;5037079;28;20136;-64
2021/04/04 03:14:49;;;;;;;12.55;4.32;;;;;;;1.88;63.56;97131.97;5029034;28;20557;-62
2021/04/04 03:17:16;;;;;;;14.52;5.57;;;;;;;1.79;64.12;97137.25;5019558;28;20045;-63
2021/04/04 03:19:44;;;;;;;10.68;4.82;;;;;;;1.84;63.69;97130.97;5024195;28;20120;-64
2021/04/04 03:22:11;;;;;;;10.85;4.45;;;;;;;1.85;64.14;97125.25;5017929;28;20034;-63
2021/04/04 03:24:39;;;;;;;10.85;4.78;;;;;;;1.85;63.71;97135.25;5005608;28;20471;-64
2021/04/04 03:27:06;;;;;;;10.88;4.45;;;;;;;1.82;64.48;97133.97;5017966;28;20132;-62
2021/04/04 03:29:33;;;;;;;10.43;4.78;;;;;;;1.90;64.48;97138.66;5001622;28;20541;-63
2021/04/04 03:32:01;;;;;;;11.02;4.63;;;;;;;1.85;64.53;97138.75;5023070;28;20045;-64
2021/04/04 03:34:27;;;;;;;9.05;5.10;;;;;;;1.87;64.42;97136.56;5018658;28;20713;-62
2021/04/04 03:36:54;;;;;;;13.35;4.65;;;;;;;1.89;64.29;97139.78;5023007;28;20071;-65
2021/04/04 03:39:23;;;;;;;9.75;5.28;;;;;;;1.91;64.73;97139.47;5009059;28;20045;-63
2021/04/04 03:41:51;;;;;;;12.85;4.47;;;;;;;1.89;64.82;97133.56;5027238;28;20045;-63
2021/04/04 03:44:27;;;;;;;11.05;4.90;;;;;;;1.92;63.84;97136.44;5021585;28;20042;-64
2021/04/04 03:46:56;;;;;;;11.82;6.00;;;;;;;1.97;64.15;97129.38;5006640;28;20390;-62
2021/04/04 03:49:23;;;;;;;8.98;4.72;;;;;;;1.92;63.96;97128.34;5018745;28;20609;-65
2021/04/04 03:51:54;;;;;;;9.93;5.50;;;;;;;1.88;63.97;97134.66;5025851;28;20049;-65
2021/04/04 03:54:21;;;;;;;10.07;5.10;;;;;;;1.81;64.36;97131.56;5005731;28;20052;-65
2021/04/04 03:56:48;;;;;;;14.35;4.90;;;;;;;1.90;64.10;97133.25;5009491;28;20046;-63
2021/04/04 03:59:15;;;;;;;10.63;4.82;;;;;;;1.86;64.15;97126.84;5011187;28;20042;-64
2021/04/04 04:01:46;;;;;;;9.55;4.90;;;;;;;1.88;64.49;97134.66;5016294;28;20049;-63
2021/04/04 04:04:13;;;;;;;10.35;5.05;;;;;;;1.79;64.82;97131.06;5007485;28;20095;-63
2021/04/04 04:06:40;;;;;;;10.77;5.03;;;;;;;1.77;64.49;97127.88;5012307;28;20099;-64
2021/04/04 04:09:08;;;;;;;8.93;4.90;;;;;;;1.80;64.72;97130.75;5006883;28;20046;-64
2021/04/04 04:11:38;;;;;;;9.05;4.40;;;;;;;1.80;64.89;97138.88;5003231;28;20390;-62
2021/04/04 04:14:05;;;;;;;10.18;5.00;;;;;;;1.82;64.04;97133.97;4994025;28;20080;-61
2021/04/04 04:16:34;;;;;;;11.00;4.85;;;;;;;1.92;63.51;97130.25;5020268;28;20100;-64
2021/04/04 04:19:00;;;;;;;10.63;5.00;;;;;;;1.92;64.20;97125.66;5005886;28;20041;-65
2021/04/04 04:21:26;;;;;;;10.43;4.43;;;;;;;1.87;64.45;97131.19;5002616;28;20491;-64
2021/04/04 04:23:53;;;;;;;13.23;5.28;;;;;;;1.90;63.67;97135.97;5005697;28;20056;-64
2021/04/04 04:26:19;;;;;;;12.10;4.63;;;;;;;1.98;63.82;97134.47;5007329;28;20045;-63
2021/04/04 04:28:46;;;;;;;10.02;4.38;;;;;;;2.00;63.09;97136.84;5011760;28;20555;-62
2021/04/04 04:31:19;;;;;;;9.88;4.38;;;;;;;2.01;63.59;97138.47;5003297;28;20103;-65
2021/04/04 04:33:48;;;;;;;10.45;4.75;;;;;;;1.92;63.53;97132.97;5008326;28;20080;-63
2021/04/04 04:36:17;;;;;;;12.10;4.75;;;;;;;1.86;63.77;97137.66;5005811;28;20066;-65
2021/04/04 04:38:43;;;;;;;10.15;6.10;;;;;;;1.81;64.35;97136.97;5019789;28;20037;-63
2021/04/04 04:41:11;;;;;;;9.98;5.18;;;;;;;1.86;63.99;97134.97;5017205;28;20077;-64
2021/04/04 04:43:41;;;;;;;13.45;4.88;;;;;;;1.91;63.90;97134.88;5019622;28;20100;-64
2021/04/04 04:46:07;;;;;;;11.10;5.05;;;;;;;1.90;63.28;97132.47;5026568;28;20041;-63
2021/04/04 04:48:34;;;;;;;13.02;5.10;;;;;;;1.82;63.94;97130.44;5029283;28;20050;-64
2021/04/04 04:51:00;;;;;;;8.73;4.72;;;;;;;1.82;63.78;97133.97;5008463;28;20098;-63
2021/04/04 04:53:26;;;;;;;13.00;5.18;;;;;;;1.84;63.80;97137.16;5000936;28;20081;-63
2021/04/04 04:55:59;;;;;;;11.85;5.10;;;;;;;1.89;64.03;97137.06;5012955;28;20042;-65
2021/04/04 04:58:26;;;;;;;17.38;4.82;;;;;;;1.91;63.80;97118.66;5024029;28;20109;-63
2021/04/04 05:00:54;;;;;;;8.32;4.68;;;;;;;1.79;64.42;97128.34;5031947;28;20045;-64
2021/04/04 05:03:19;;;;;;;13.05;5.28;;;;;;;1.81;63.55;97126.94;5009916;28;20061;-63
2021/04/04 05:05:45;;;;;;;14.65;5.30;;;;;;;1.83;64.02;97126.66;5018894;28;20470;-63
2021/04/04 05:08:14;;;;;;;14.15;4.70;;;;;;;1.76;64.13;97137.84;5017178;28;20042;-62
2021/04/04 05:10:41;;;;;;;13.82;5.13;;;;;;;1.70;64.31;97123.63;5019753;28;20045;-62
2021/04/04 05:13:08;;;;;;;7.97;5.03;;;;;;;1.56;64.93;97139.03;5011513;28;20041;-63
2021/04/04 05:15:34;;;;;;;9.98;5.20;;;;;;;1.49;64.72;97141.31;5022105;28;20041;-63
2021/04/04 05:17:59;;;;;;;10.25;4.85;;;;;;;1.48;65.13;97137.81;5022048;28;20038;-63
2021/04/04 05:20:25;;;;;;;12.55;5.13;;;;;;;1.52;65.17;97143.41;5012461;28;20592;-63
2021/04/04 05:22:51;;;;;;;19.13;4.55;;;;;;;1.76;64.33;97143.25;5021164;28;20037;-63
2021/04/04 05:25:16;;;;;;;11.73;5.10;;;;;;;1.90;63.04;97141.34;5013506;28;20099;-61
2021/04/04 05:27:42;;;;;;;10.38;4.93;;;;;;;2.16;62.16;97138.19;5011631;28;20049;-62
2021/04/04 05:30:11;;;;;;;10.38;4.85;;;;;;;2.24;62.10;97142.88;5004683;28;20046;-59
2021/04/04 05:32:47;;;;;;;9.57;4.13;;;;;;;2.35;61.34;97148.84;5012680;28;20141;-63
2021/04/04 05:35:21;;;;;;;9.27;4.72;;;;;;;2.41;61.40;97144.16;5014359;28;20061;-63
2021/04/04 05:37:47;;;;;;;10.82;4.13;;;;;;;2.67;60.70;97150.63;5013691;28;20046;-64
2021/04/04 05:40:26;;;;;;;9.68;4.15;;;;;;;2.92;59.93;97161.16;5012197;28;20080;-65
2021/04/04 05:42:51;;;;;;;10.30;3.83;;;;;;;2.85;59.35;97164.31;5015640;28;20487;-63
2021/04/04 05:45:27;;;;;;;6.90;3.47;;;;;;;3.06;58.65;97159.22;5016868;28;20045;-63
2021/04/04 05:48:04;;;;;;;10.43;4.15;;;;;;;3.21;57.79;97166.97;5004187;28;20067;-64
2021/04/04 05:50:41;;;;;;;7.28;3.63;;;;;;;3.35;57.13;97163.41;5004866;28;20046;-64
2021/04/04 05:53:21;;;;;;;9.88;4.03;;;;;;;3.45;57.11;97166.66;4999228;28;20103;-62
2021/04/04 05:56:10;;;;;;;10.10;5.47;;;;;;;3.75;56.64;97175.13;5014710;28;20132;-62
2021/04/04 05:58:45;;;;;;;9.82;4.20;;;;;;;3.82;55.91;97164.66;5016789;28;20099;-62
2021/04/04 06:01:33;;;;;;;15.98;5.68;;;;;;;4.06;54.82;97162.69;5010085;28;20132;-62
2021/04/04 06:04:11;;;;;;;11.25;4.00;;;;;;;4.64;53.46;97171.66;4970102;28;20065;-62
2021/04/04 06:06:57;;;;;;;9.07;4.32;;;;;;;4.51;53.79;97167.94;5014524;28;20457;-63
2021/04/04 06:09:50;;;;;;;17.50;6.40;;;;;;;5.14;51.54;97168.50;5015208;28;20319;-64
2021/04/04 06:12:51;;;;;;;7.05;3.58;;;;;;;5.00;52.32;97165.94;5017605;28;20513;-63
2021/04/04 06:15:38;;;;;;;10.45;4.30;;;;;;;5.10;52.26;97170.28;5014463;28;20041;-63
2021/04/04 06:18:32;;;;;;;10.18;3.40;;;;;;;5.19;51.06;97167.56;5028017;28;20022;-63
2021/04/04 06:21:20;;;;;;;8.88;4.10;;;;;;;4.92;52.67;97174.88;5046074;28;21246;-63
2021/04/04 06:24:17;;;;;;;25.38;12.55;;;;;;;5.53;50.58;97172.16;5034896;28;20582;-64
2021/04/04 06:27:01;;;;;;;10.68;4.80;;;;;;;5.41;51.85;97170.09;5017136;28;20124;-64
2021/04/04 06:29:35;;;;;;;8.52;3.65;;;;;;;5.46;51.24;97172.66;5010387;28;20140;-64
2021/04/04 06:32:07;;;;;;;9.45;4.05;;;;;;;5.26;51.50;97167.88;5024907;28;20037;-64
2021/04/04 06:34:35;;;;;;;8.98;3.53;;;;;;;4.80;52.63;97161.94;5020374;28;20060;-64
2021/04/04 06:37:44;;;;;;;11.18;5.95;;;;;;;5.01;52.88;97159.41;5024097;28;20094;-64
2021/04/04 06:40:20;;;;;;;7.80;4.25;;;;;;;5.43;51.01;97156.97;4981027;28;20034;-63
2021/04/04 06:42:56;;;;;;;8.27;4.22;;;;;;;5.62;51.04;97161.25;5022618;28;20052;-64
2021/04/04 06:45:46;;;;;;;8.77;4.60;;;;;;;5.45;51.79;97157.44;5019097;28;20050;-63
2021/04/04 06:48:11;;;;;;;;;;;;;;;5.55;51.18;97159.06;5010084;28;20049;-64
2021/04/04 06:50:43;;;;;;;7.13;3.50;;;;;;;5.63;50.61;97160.94;5013294;28;20370;-62
2021/04/04 06:53:52;;;;;;;9.02;3.75;;;;;;;5.53;50.79;97145.78;4998274;28;20049;-64
2021/04/04 06:56:23;;;;;;;9.80;3.45;;;;;;;5.65;50.34;97158.69;5005431;28;20054;-64
2021/04/04 06:59:07;;;;;;;8.50;3.35;;;;;;;5.90;50.70;97161.66;5015193;28;20060;-64
2021/04/04 07:01:54;;;;;;;8.10;3.10;;;;;;;6.76;48.60;97154.25;5024383;28;20136;-64
2021/04/04 07:04:38;;;;;;;8.77;3.78;;;;;;;7.84;45.51;97160.88;5028317;28;20072;-63
2021/04/04 07:07:42;;;;;;;6.53;2.92;;;;;;;7.34;45.30;97156.38;5008712;28;20111;-62
2021/04/04 07:10:23;;;;;;;11.68;4.10;;;;;;;7.45;46.52;97161.09;5011786;28;20501;-64
2021/04/04 07:12:52;;;;;;;6.32;3.50;;;;;;;7.03;47.44;97158.38;5013400;28;20076;-64
2021/04/04 07:15:39;;;;;;;9.48;2.90;;;;;;;7.70;45.25;97158.44;5016050;28;20042;-62
2021/04/04 07:18:56;;;;;;;9.43;3.30;;;;;;;7.82;44.17;97163.94;5017554;28;20486;-63
2021/04/04 07:21:58;;;;;;;8.63;3.38;;;;;;;8.73;43.63;97154.84;5012510;28;20045;-63
2021/04/04 07:24:56;;;;;;;5.65;2.80;;;;;;;8.43;42.64;97162.47;5018581;28;20045;-65
2021/04/04 07:27:52;;;;;;;7.43;3.22;;;;;;;9.73;39.78;97156.09;5008661;28;20164;-65
2021/04/04 07:30:34;;;;;;;6.68;2.72;;;;;;;10.68;39.40;97160.84;5001987;28;20108;-64
2021/04/04 07:33:09;;;;;;;6.70;3.08;;;;;;;9.64;39.82;97158.22;5010077;28;20104;-64
2021/04/04 07:35:59;;;;;;;7.00;2.85;;;;;;;9.32;40.17;97147.94;5009559;28;20055;-64
2021/04/04 07:38:46;;;;;;;5.00;2.70;;;;;;;9.96;39.63;97153.59;4975497;28;20052;-64
2021/04/04 07:41:29;;;;;;;16.23;4.30;;;;;;;10.39;38.55;97151.97;5009002;28;20415;-64
2021/04/04 07:44:12;;;;;;;7.75;3.20;;;;;;;10.60;38.53;97148.91;5023369;28;20037;-64
2021/04/04 07:47:11;;;;;;;6.18;2.60;;;;;;;11.63;35.01;97151.47;5024887;28;20040;-64
2021/04/04 07:49:50;;;;;;;5.83;2.77;;;;;;;11.21;36.41;97139.28;5007313;28;20050;-64
2021/04/04 07:52:32;;;;;;;6.65;2.88;;;;;;;13.61;32.15;97147.13;5011944;28;20300;-63
2021/04/04 07:55:00;;;;;;;10.15;3.55;;;;;;;14.83;31.52;97142.75;5011396;28;20042;-64
2021/04/04 07:58:04;;;;;;;9.65;3.60;;;;;;;12.93;35.34;97149.00;5014496;28;20136;-62
2021/04/04 08:00:32;;;;;;;14.02;4.32;;;;;;;12.91;36.90;97149.38;5006436;28;20046;-64
2021/04/04 08:03:13;;;;;;;8.13;2.80;;;;;;;12.02;33.69;97151.47;4997024;28;20057;-63
2021/04/04 08:05:44;;;;;;;9.30;2.72;;;;;;;12.89;32.85;97142.63;5006390;28;20050;-62
2021/04/04 08:08:19;;;;;;;13.10;4.25;;;;;;;13.01;36.85;97153.41;5005287;28;20144;-63
2021/04/04 08:10:56;;;;;;;10.90;4.40;;;;;;;14.08;33.99;97139.38;5010853;28;20072;-63
2021/04/04 08:13:42;;;;;;;17.20;5.07;;;;;;;14.81;32.26;97142.34;5011907;28;20537;-61
2021/04/04 08:16:14;;;;;;;8.65;3.60;;;;;;;15.22;31.90;97138.66;5011133;28;20034;-62
2021/04/04 08:18:40;;;;;;;16.75;4.47;;;;;;;15.37;31.89;97128.47;5002063;28;20045;-63
2021/04/04 08:21:18;;;;;;;12.95;4.13;;;;;;;15.35;30.61;97128.84;4995311;28;20044;-62
2021/04/04 08:23:53;;;;;;;12.45;4.50;;;;;;;14.25;32.90;97130.47;5015734;28;20042;-62
2021/04/04 08:26:26;;;;;;;10.63;3.85;;;;;;;15.09;32.37;97138.22;5014519;28;20065;-62
2021/04/04 08:29:10;;;;;;;11.68;4.25;;;;;;;15.13;32.01;97138.22;5037177;28;20029;-62
2021/04/04 08:32:09;;;;;;;10.57;3.85;;;;;;;14.69;31.07;97137.16;5034659;28;20045;-64
2021/04/04 08:34:40;;;;;;;15.23;4.97;;;;;;;14.76;31.58;97134.44;5012315;28;20050;-63
2021/04/04 08:37:14;;;;;;;11.73;3.35;;;;;;;14.37;32.18;97134.91;5018465;28;20106;-63
2021/04/04 08:39:47;;;;;;;7.72;3.55;;;;;;;14.43;32.05;97127.88;5021864;28;20130;-63
2021/04/04 08:42:17;;;;;;;8.75;3.53;;;;;;;14.18;31.91;97135.91;5009727;28;20068;-63
2021/04/04 08:44:44;;;;;;;;;;;;;;;14.07;31.04;97133.06;5028563;28;20047;-64
2021/04/04 08:47:23;;;;;;;11.38;4.10;;;;;;;14.55;32.78;97126.78;5015777;28;19924;-65
2021/04/04 08:49:50;;;;;;;11.98;4.22;;;;;;;15.38;30.28;97117.06;5002945;28;20502;-63
2021/04/04 08:52:23;;;;;;;12.35;3.88;;;;;;;15.66;29.06;97118.31;5014046;28;20037;-64
2021/04/04 08:54:52;;;;;;;6.70;3.25;;;;;;;12.81;33.38;97133.50;5024730;28;20073;-64
2021/04/04 08:57:23;;;;;;;8.95;3.05;;;;;;;14.59;30.00;97118.59;5012329;28;20503;-64
2021/04/04 08:59:53;;;;;;;27.48;6.63;;;;;;;16.19;28.14;97111.38;5034260;28;20056;-64
2021/04/04 09:02:19;;;;;;;8.82;3.45;;;;;;;16.30;28.11;97116.91;5020774;28;20033;-65
2021/04/04 09:04:44;;;;;;;8.75;3.33;;;;;;;14.75;31.45;97119.09;5022261;28;20490;-63
2021/04/04 09:07:11;;;;;;;12.02;4.50;;;;;;;15.18;30.30;97115.75;5017274;28;20052;-63
2021/04/04 09:09:45;;;;;;;6.47;3.35;;;;;;;15.09;29.08;97122.44;5020053;28;20129;-64
2021/04/04 09:12:12;;;;;;;5.97;3.13;;;;;;;16.86;26.85;97115.31;5005618;28;20041;-61
2021/04/04 09:14:41;;;;;;;4.72;2.13;;;;;;;13.93;27.97;97121.91;5017420;28;20702;-63
2021/04/04 09:17:10;;;;;;;10.82;3.22;;;;;;;15.36;27.49;97116.66;5015705;28;20049;-61
2021/04/04 09:19:41;;;;;;;21.05;7.00;;;;;;;16.30;30.32;97114.91;5004928;28;20136;-64
2021/04/04 09:22:21;;;;;;;7.72;3.00;;;;;;;15.60;27.89;97112.38;5032634;28;20076;-62
2021/04/04 09:24:54;;;;;;;9.73;3.45;;;;;;;15.61;30.34;97115.94;5025488;28;20053;-63
2021/04/04 09:27:22;;;;;;;15.05;4.57;;;;;;;15.85;29.12;97128.28;5016058;28;20037;-64
2021/04/04 09:29:54;;;;;;;11.98;4.28;;;;;;;14.78;33.21;97128.53;5019424;28;20057;-64
2021/04/04 09:32:38;;;;;;;7.65;3.22;;;;;;;14.89;31.12;97121.94;5009772;28;20041;-64
2021/04/04 09:35:05;;;;;;;9.10;3.65;;;;;;;14.09;32.27;97125.22;4991122;28;20041;-64
2021/04/04 09:37:31;;;;;;;11.02;5.15;;;;;;;15.59;30.75;97121.88;5019206;28;20052;-64
2021/04/04 09:39:58;;;;;;;5.35;1.80;;;;;;;14.61;25.77;97135.53;5020146;28;20068;-64
2021/04/04 09:42:28;;;;;;;6.05;2.08;;;;;;;11.32;28.75;97128.56;5018821;28;20044;-63
2021/04/04 09:45:11;;;;;;;;;;;;;;;10.84;29.73;97127.91;5021873;28;20380;-64
2021/04/04 09:47:36;;;;;;;4.15;1.52;;;;;;;11.82;28.35;97124.03;5022093;28;20019;-64
2021/04/04 09:50:02;;;;;;;12.25;5.88;;;;;;;12.63;37.86;97127.75;5022142;28;20137;-63
2021/04/04 09:52:29;;;;;;;7.43;3.10;;;;;;;13.17;29.35;97120.25;5016340;28;20048;-64
2021/04/04 09:54:59;;;;;;;6.38;2.80;;;;;;;13.03;27.28;97111.81;5021511;28;20552;-64
2021/04/04 09:57:25;;;;;;;15.65;5.70;;;;;;;13.47;34.74;97120.25;5014543;28;20446;-63
2021/04/04 09:59:51;;;;;;;13.38;4.50;;;;;;;14.13;34.17;97112.28;5021682;28;20046;-64
2021/04/04 10:02:33;;;;;;;7.18;3.78;;;;;;;14.08;34.03;97109.06;5012973;28;20075;-62
2021/04/04 10:04:58;;;;;;;8.88;3.90;;;;;;;15.23;31.93;97104.34;5020512;28;20058;-62
2021/04/04 10:07:31;;;;;;;9.32;3.60;;;;;;;16.17;28.97;97099.88;5016334;28;20496;-64
2021/04/04 10:09:58;;;;;;;10.98;4.07;;;;;;;16.80;29.15;97101.06;5020864;28;20136;-63
2021/04/04 10:12:24;;;;;;;6.80;3.47;;;;;;;16.26;29.71;97092.03;5013348;28;20525;-64
2021/04/04 10:15:19;;;;;;;7.40;2.65;;;;;;;14.37;26.06;97101.03;5000666;28;20466;-63
2021/04/04 10:17:55;;;;;;;2.95;1.60;;;;;;;13.22;25.13;97092.41;4990846;28;20042;-62
2021/04/04 10:20:31;;;;;;;4.40;1.75;;;;;;;11.50;27.60;97090.50;5020310;28;20048;-63
2021/04/04 10:22:57;;;;;;;7.88;2.25;;;;;;;12.96;27.57;97098.75;5024646;28;20052;-62
2021/04/04 10:25:23;;;;;;;3.03;1.55;;;;;;;14.80;24.91;97085.63;5036742;28;21039;-62
2021/04/04 10:28:04;;;;;;;4.22;1.70;;;;;;;14.72;24.11;97082.03;5028252;28;20049;-60
2021/04/04 10:30:31;;;;;;;6.70;1.63;;;;;;;15.81;22.87;97083.28;5004882;28;20046;-62
2021/04/04 10:33:16;;;;;;;4.93;1.73;;;;;;;12.55;26.09;97082.88;5018171;28;20042;-62
2021/04/04 10:35:42;;;;;;;3.58;2.47;;;;;;;10.90;27.82;97071.69;5018482;28;20429;-63
2021/04/04 10:38:23;;;;;;;7.10;2.17;;;;;;;9.97;28.98;97084.03;5014405;28;20034;-63
2021/04/04 10:40:50;;;;;;;3.92;1.80;;;;;;;10.81;31.33;97076.59;5020933;28;20128;-62
2021/04/04 10:43:18;;;;;;;4.53;1.77;;;;;;;11.35;30.55;97086.69;5015762;28;20050;-61
2021/04/04 10:45:58;;;;;;;7.32;2.33;;;;;;;10.26;29.33;97084.72;5007449;28;20049;-61
2021/04/04 10:48:24;;;;;;;4.57;1.80;;;;;;;10.74;29.53;97076.44;5014710;28;20939;-64
2021/04/04 10:50:50;;;;;;;7.82;2.10;;;;;;;11.66;29.16;97076.69;5022435;28;20068;-63
2021/04/04 10:53:17;;;;;;;3.58;1.75;;;;;;;12.29;28.39;97075.41;5019138;28;20069;-62
2021/04/04 10:55:44;;;;;;;5.18;1.60;;;;;;;13.33;27.48;97062.31;5024378;28;20091;-62
2021/04/04 10:58:10;;;;;;;4.80;2.00;;;;;;;12.38;27.78;97066.94;4999048;28;20041;-63
2021/04/04 11:00:37;;;;;;;4.88;2.15;;;;;;;10.71;28.92;97072.47;5023846;28;20395;-65
2021/04/04 11:03:03;;;;;;;8.02;2.05;;;;;;;11.85;29.76;97070.38;5019942;28;20038;-63
2021/04/04 11:05:29;;;;;;;4.13;1.90;;;;;;;12.30;27.87;97062.47;5001513;28;20042;-62
2021/04/04 11:07:56;;;;;;;4.53;1.90;;;;;;;11.37;28.33;97067.16;5023018;28;20099;-61
2021/04/04 11:10:22;;;;;;;6.55;2.40;;;;;;;10.89;28.73;97062.69;5020278;28;20064;-64
2021/04/04 11:12:48;;;;;;;6.18;1.80;;;;;;;11.39;29.14;97051.13;5015132;28;20046;-64
2021/04/04 11:15:16;;;;;;;6.45;2.10;;;;;;;12.31;28.60;97053.88;5003436;28;20057;-64
2021/04/04 11:17:44;;;;;;;5.15;2.20;;;;;;;12.24;27.20;97051.00;5015641;28;20045;-63
2021/04/04 11:20:15;;;;;;;5.13;2.00;;;;;;;13.10;26.94;97037.66;5018331;28;20049;-64
2021/04/04 11:22:41;;;;;;;4.85;1.63;;;;;;;12.24;27.82;97040.84;5021871;28;20037;-64
2021/04/04 11:25:11;;;;;;;4.00;1.60;;;;;;;12.05;27.90;97044.47;5018389;28;20394;-64
2021/04/04 11:27:48;;;;;;;5.78;1.80;;;;;;;11.80;29.00;97035.78;5019501;28;20076;-64
2021/04/04 11:30:27;;;;;;;3.72;1.92;;;;;;;11.56;29.03;97047.09;5014611;28;20071;-63
2021/04/04 11:33:15;;;;;;;5.28;2.00;;;;;;;12.17;28.25;97039.91;5031387;28;20046;-63
2021/04/04 11:36:01;;;;;;;7.30;2.10;;;;;;;11.86;29.27;97037.03;5002195;28;20096;-62
2021/04/04 11:38:29;;;;;;;6.25;1.90;;;;;;;11.74;28.88;97036.44;5007763;28;20375;-61
2021/04/04 11:41:14;;;;;;;4.20;1.90;;;;;;;13.74;27.30;97032.06;5010875;28;20053;-61
2021/04/04 11:43:40;;;;;;;6.13;2.08;;;;;;;14.49;24.20;97029.88;5025648;28;20049;-63
2021/04/04 11:46:41;;;;;;;6.07;1.73;;;;;;;14.88;23.53;97021.06;5001310;28;20049;-64
2021/04/04 11:49:32;;;;;;;3.05;1.50;;;;;;;15.12;23.52;97020.75;5017902;28;20407;-62
2021/04/04 11:52:07;;;;;;;4.40;1.60;;;;;;;15.36;23.60;97016.50;5022472;28;20061;-64
2021/04/04 11:54:45;;;;;;;3.28;1.70;;;;;;;14.95;24.36;97014.78;5011845;28;20072;-64
2021/04/04 11:57:20;;;;;;;4.82;1.90;;;;;;;14.99;24.13;97006.53;5007623;28;20040;-62
2021/04/04 11:59:50;;;;;;;3.67;1.70;;;;;;;14.81;23.85;97003.69;5016429;28;20037;-62
2021/04/04 12:02:17;;;;;;;5.35;1.90;;;;;;;13.22;24.75;97001.66;5012596;28;20375;-63